Time;durP1;ratioP1;P1;durP2;ratioP2;P2;SDS_P1;SDS_P2;PMS_P1;PMS_P2;Temp;Humidity;BMP_temperature;BMP_pressure;BME280_temperature;BME280_humidity;BME280_pressure;Samples;Min_cycle;Max_cycle;Signal;HPM_P1;HPM_P2
2023/10/28 00:01:45;;;;;;;5.78;2.38;;;;;;;17.86;55.33;93766.41;5050318;28;20108;-71
2023/10/28 00:04:11;;;;;;;7.63;2.50;;;;;;;17.90;54.96;93782.59;5049002;28;20025;-71
2023/10/28 00:06:36;;;;;;;5.97;2.33;;;;;;;18.04;54.71;93790.31;5067946;28;20256;-71
2023/10/28 00:09:02;;;;;;;4.60;2.15;;;;;;;17.57;56.50;93789.28;5065744;28;20037;-71
2023/10/28 00:11:29;;;;;;;4.13;2.10;;;;;;;17.68;56.23;93790.53;5066644;28;20029;-71
2023/10/28 00:13:54;;;;;;;4.55;1.80;;;;;;;17.68;56.61;93811.56;5034366;28;20413;-71
2023/10/28 00:16:20;;;;;;;6.70;1.70;;;;;;;17.78;56.46;93805.97;5050467;28;20033;-71
2023/10/28 00:18:46;;;;;;;3.53;1.80;;;;;;;17.80;56.22;93807.41;5065235;28;20499;-71
2023/10/28 00:21:12;;;;;;;3.28;1.58;;;;;;;17.85;56.19;93796.31;5049636;28;20052;-71
2023/10/28 00:23:38;;;;;;;4.13;1.58;;;;;;;17.74;56.47;93786.31;5049868;28;20105;-72
2023/10/28 00:26:04;;;;;;;6.75;1.60;;;;;;;17.76;56.33;93782.50;5068196;28;20040;-71
2023/10/28 00:28:39;;;;;;;7.75;2.08;;;;;;;17.75;56.49;93770.38;5045306;28;20033;-71
2023/10/28 00:31:05;;;;;;;4.07;1.70;;;;;;;17.72;56.68;93781.28;5049938;28;20033;-71
2023/10/28 00:33:30;;;;;;;3.67;1.70;;;;;;;17.70;56.55;93764.91;5049657;28;20037;-71
2023/10/28 00:35:56;;;;;;;5.18;1.75;;;;;;;17.73;56.69;93771.59;5050295;28;20084;-71
2023/10/28 00:38:22;;;;;;;4.38;1.58;;;;;;;17.61;57.02;93766.91;5064436;28;20043;-71
2023/10/28 00:40:48;;;;;;;3.35;1.77;;;;;;;17.55;57.44;93790.47;5066872;28;20036;-71
2023/10/28 00:43:13;;;;;;;2.65;1.50;;;;;;;17.39;57.35;93775.88;5033441;28;20511;-71
2023/10/28 00:45:39;;;;;;;3.38;1.70;;;;;;;17.51;57.21;93770.88;5048723;28;20033;-71
2023/10/28 00:48:05;;;;;;;6.47;1.60;;;;;;;17.65;57.04;93793.56;5064867;28;20040;-71
2023/10/28 00:50:30;;;;;;;3.40;1.70;;;;;;;17.47;57.03;93770.47;5067332;28;20032;-71
2023/10/28 00:52:55;;;;;;;4.68;1.60;;;;;;;17.39;57.12;93791.63;5034109;28;20045;-71
2023/10/28 00:55:22;;;;;;;2.95;1.58;;;;;;;17.43;57.41;93804.16;5053814;28;20044;-71
2023/10/28 00:57:48;;;;;;;5.18;1.80;;;;;;;17.34;57.81;93799.25;5045472;28;20074;-71
2023/10/28 01:00:17;;;;;;;4.25;1.70;;;;;;;17.21;58.04;93807.84;5048599;28;20036;-72
2023/10/28 01:02:43;;;;;;;6.50;1.73;;;;;;;17.05;58.53;93805.50;5064664;28;20081;-71
2023/10/28 01:05:11;;;;;;;5.30;1.65;;;;;;;17.15;58.21;93788.44;5048946;28;20037;-71
2023/10/28 01:07:40;;;;;;;5.13;1.90;;;;;;;16.94;58.29;93806.88;5049465;28;20136;-71
2023/10/28 01:10:05;;;;;;;8.60;2.33;;;;;;;16.81;59.20;93830.34;5065998;28;20519;-71
2023/10/28 01:12:31;;;;;;;5.75;1.90;;;;;;;16.70;59.94;93821.16;5066792;28;20070;-72
2023/10/28 01:14:56;;;;;;;3.83;1.90;;;;;;;16.56;60.37;93812.34;5047580;28;20112;-71
2023/10/28 01:17:25;;;;;;;3.63;1.90;;;;;;;16.62;60.30;93810.78;5067378;28;20048;-71
2023/10/28 01:19:52;;;;;;;2.35;1.70;;;;;;;16.65;60.31;93815.66;5065060;28;20167;-71
2023/10/28 01:22:18;;;;;;;5.63;1.80;;;;;;;16.72;59.93;93813.91;5047767;28;20503;-71
2023/10/28 01:24:44;;;;;;;3.38;1.80;;;;;;;16.72;60.32;93792.94;5066051;28;20035;-71
2023/10/28 01:27:09;;;;;;;3.05;1.50;;;;;;;16.87;60.04;93800.75;5032813;28;20036;-71
2023/10/28 01:29:35;;;;;;;3.13;1.40;;;;;;;16.94;59.96;93809.50;5064218;28;20027;-71
2023/10/28 01:32:03;;;;;;;3.58;1.80;;;;;;;16.72;59.75;93782.44;5067481;28;20116;-71
2023/10/28 01:34:29;;;;;;;4.03;1.63;;;;;;;16.96;59.87;93818.75;5047356;28;20027;-71
2023/10/28 01:36:55;;;;;;;4.57;1.90;;;;;;;16.84;60.19;93807.19;5046799;28;20036;-71
2023/10/28 01:39:21;;;;;;;5.00;1.70;;;;;;;16.76;60.06;93807.28;5064136;28;20036;-71
2023/10/28 01:41:46;;;;;;;3.10;2.00;;;;;;;16.79;60.31;93817.41;5066091;28;20097;-71
2023/10/28 01:44:12;;;;;;;5.10;2.10;;;;;;;16.73;60.16;93813.72;5064232;28;20029;-71
2023/10/28 01:46:37;;;;;;;3.25;1.90;;;;;;;16.70;60.26;93835.06;5066797;28;21389;-71
2023/10/28 01:49:04;;;;;;;3.33;2.15;;;;;;;16.59;60.54;93811.16;5047269;28;20036;-71
2023/10/28 01:51:29;;;;;;;9.23;2.40;;;;;;;16.45;60.66;93810.22;5049439;28;20035;-71
2023/10/28 01:53:55;;;;;;;4.38;1.90;;;;;;;16.66;60.58;93830.38;5065482;28;20041;-71
2023/10/28 01:56:20;;;;;;;4.22;2.28;;;;;;;16.48;60.95;93834.25;5065096;28;22702;-71
2023/10/28 01:58:46;;;;;;;4.45;2.05;;;;;;;15.88;62.84;93822.34;5065210;28;20025;-71
2023/10/28 02:01:11;;;;;;;4.30;2.00;;;;;;;16.08;62.19;93817.31;5065647;28;20093;-71
2023/10/28 02:03:37;;;;;;;7.55;2.92;;;;;;;15.92;62.58;93807.88;5063125;28;20037;-71
2023/10/28 02:06:04;;;;;;;4.72;2.45;;;;;;;16.05;62.36;93808.03;5064555;28;20040;-71
2023/10/28 02:08:30;;;;;;;5.25;2.50;;;;;;;15.78;62.74;93801.66;5065388;28;20112;-71
2023/10/28 02:10:55;;;;;;;4.57;1.95;;;;;;;15.85;63.19;93825.28;5048457;28;20115;-71
2023/10/28 02:13:22;;;;;;;5.82;2.78;;;;;;;15.66;63.45;93800.47;5064076;28;20081;-71
2023/10/28 02:15:48;;;;;;;5.65;2.25;;;;;;;15.74;63.66;93828.38;5064705;28;20040;-71
2023/10/28 02:18:14;;;;;;;5.88;2.20;;;;;;;15.65;63.71;93843.34;5032163;28;20403;-71
2023/10/28 02:20:41;;;;;;;4.07;1.90;;;;;;;15.82;63.59;93850.06;5065126;28;20036;-72
2023/10/28 02:23:09;;;;;;;3.60;1.80;;;;;;;15.81;63.48;93837.94;5065153;28;20032;-72
2023/10/28 02:25:34;;;;;;;5.03;2.40;;;;;;;15.63;63.63;93834.88;5047618;28;20470;-71
2023/10/28 02:28:00;;;;;;;3.47;2.10;;;;;;;15.64;64.30;93860.06;5045963;28;20159;-72
2023/10/28 02:30:26;;;;;;;5.15;2.40;;;;;;;15.05;65.69;93826.00;5044929;28;20478;-71
2023/10/28 02:32:51;;;;;;;7.95;2.50;;;;;;;15.32;65.40;93850.72;5044194;28;20040;-71
2023/10/28 02:35:17;;;;;;;4.30;2.00;;;;;;;15.24;65.68;93848.19;5045056;28;20123;-72
2023/10/28 02:37:42;;;;;;;4.07;2.08;;;;;;;15.44;65.26;93851.94;5064371;28;20031;-71
2023/10/28 02:40:11;;;;;;;6.43;2.05;;;;;;;15.27;65.49;93843.44;5062141;28;21025;-71
2023/10/28 02:42:37;;;;;;;5.00;2.00;;;;;;;15.40;65.21;93858.50;5064147;28;20039;-71
2023/10/28 02:45:04;;;;;;;7.53;2.13;;;;;;;15.31;65.35;93859.59;5048699;28;20029;-71
2023/10/28 02:47:32;;;;;;;7.43;2.55;;;;;;;15.24;65.82;93863.88;5049030;28;20032;-72
2023/10/28 02:49:58;;;;;;;4.13;2.30;;;;;;;15.27;65.49;93843.44;5025724;28;20510;-71
2023/10/28 02:52:23;;;;;;;4.70;2.40;;;;;;;15.27;65.26;93834.78;5065015;28;20032;-71
2023/10/28 02:54:49;;;;;;;5.60;2.25;;;;;;;15.30;65.22;93835.22;5050527;28;20082;-71
2023/10/28 02:57:14;;;;;;;4.78;2.22;;;;;;;15.00;65.82;93820.50;5063023;28;20078;-71
2023/10/28 02:59:40;;;;;;;6.78;2.13;;;;;;;15.51;64.85;93847.59;5070129;28;20101;-71
2023/10/28 03:02:06;;;;;;;4.93;2.55;;;;;;;14.79;67.01;93860.38;5068688;28;20037;-72
2023/10/28 03:04:32;;;;;;;7.80;2.35;;;;;;;15.04;66.43;93859.16;5066867;28;20035;-71
2023/10/28 03:06:57;;;;;;;4.00;2.10;;;;;;;14.46;68.81;93844.91;5068706;28;20120;-71
2023/10/28 03:09:23;;;;;;;7.00;2.42;;;;;;;14.68;67.57;93846.75;5068428;28;20028;-71
2023/10/28 03:11:48;;;;;;;6.18;3.00;;;;;;;14.53;67.60;93835.41;5068976;28;20044;-71
2023/10/28 03:14:14;;;;;;;5.40;2.28;;;;;;;14.48;67.80;93850.75;5050218;28;20129;-71
2023/10/28 03:16:39;;;;;;;4.13;2.00;;;;;;;14.72;66.44;93850.63;5066172;28;20032;-71
2023/10/28 03:19:04;;;;;;;4.38;2.08;;;;;;;14.75;66.07;93859.91;5050781;28;20068;-71
2023/10/28 03:21:30;;;;;;;6.25;2.78;;;;;;;14.64;66.69;93860.31;5052148;28;20098;-71
2023/10/28 03:23:56;;;;;;;4.57;2.20;;;;;;;14.58;67.25;93859.22;5050458;28;20028;-71
2023/10/28 03:26:21;;;;;;;4.40;2.10;;;;;;;14.31;68.33;93863.91;5070146;28;20033;-71
2023/10/28 03:28:49;;;;;;;7.38;2.42;;;;;;;14.35;69.13;93868.81;5068436;28;20028;-71
2023/10/28 03:31:14;;;;;;;5.88;2.30;;;;;;;14.20;68.30;93861.72;5068452;28;20032;-71
2023/10/28 03:33:40;;;;;;;9.20;2.60;;;;;;;14.31;67.94;93866.53;5050127;28;20032;-71
2023/10/28 03:36:06;;;;;;;7.63;2.40;;;;;;;14.33;68.61;93881.25;5035261;28;20484;-71
2023/10/28 03:38:34;;;;;;;6.00;2.35;;;;;;;14.30;67.97;93872.75;5031489;28;20032;-71
2023/10/28 03:41:05;;;;;;;7.95;2.92;;;;;;;14.22;68.40;93885.88;5051052;28;20048;-71
2023/10/28 03:43:31;;;;;;;6.25;3.10;;;;;;;14.22;68.36;93891.09;5049918;28;20031;-71
2023/10/28 03:45:57;;;;;;;5.78;2.45;;;;;;;14.48;68.01;93879.50;5068817;28;20499;-71
2023/10/28 03:48:22;;;;;;;4.80;2.63;;;;;;;14.18;68.83;93876.75;5069832;28;20017;-71
2023/10/28 03:50:56;;;;;;;6.82;2.92;;;;;;;14.07;68.98;93887.59;5069552;28;20029;-71
2023/10/28 03:53:21;;;;;;;4.90;2.60;;;;;;;13.88;69.32;93880.16;5049010;28;20032;-71
2023/10/28 03:55:47;;;;;;;4.53;2.90;;;;;;;14.02;69.17;93884.66;5069556;28;20110;-71
2023/10/28 03:58:13;;;;;;;4.90;2.75;;;;;;;13.81;69.70;93890.44;5050671;28;20024;-71
2023/10/28 04:00:39;;;;;;;7.10;2.83;;;;;;;13.15;71.85;93876.75;5066214;28;20548;-71
2023/10/28 04:03:04;;;;;;;5.25;2.90;;;;;;;13.53;70.97;93916.16;5030988;28;20429;-71
2023/10/28 04:05:29;;;;;;;5.68;2.65;;;;;;;13.76;71.06;93931.91;5066902;28;20032;-71
2023/10/28 04:07:56;;;;;;;5.50;2.55;;;;;;;13.72;72.51;93904.53;5069057;28;20016;-71
2023/10/28 04:10:21;;;;;;;4.68;2.50;;;;;;;13.62;72.42;93873.38;5067592;28;20072;-71
2023/10/28 04:12:47;;;;;;;4.45;2.67;;;;;;;13.84;72.56;93888.31;5048542;28;20039;-71
2023/10/28 04:15:14;;;;;;;6.45;2.63;;;;;;;13.68;71.85;93856.25;5068683;28;20040;-71
2023/10/28 04:17:39;;;;;;;5.90;2.38;;;;;;;13.97;71.64;93902.63;5063772;28;20055;-71
2023/10/28 04:20:06;;;;;;;6.97;2.90;;;;;;;14.09;71.27;93902.06;5068289;28;20029;-71
2023/10/28 04:22:32;;;;;;;4.75;2.42;;;;;;;14.15;70.89;93899.78;5067242;28;20506;-71
2023/10/28 04:24:58;;;;;;;4.78;2.58;;;;;;;14.04;71.48;93890.50;5066139;28;20101;-71
2023/10/28 04:27:24;;;;;;;5.07;2.55;;;;;;;14.16;70.63;93896.19;5066563;28;20496;-71
2023/10/28 04:29:50;;;;;;;4.55;2.50;;;;;;;14.06;70.94;93891.16;5051012;28;20039;-71
2023/10/28 04:32:20;;;;;;;4.28;2.67;;;;;;;14.28;69.67;93905.25;5066633;28;20045;-71
2023/10/28 04:34:45;;;;;;;7.88;3.35;;;;;;;14.18;70.38;93905.50;5044441;28;20064;-71
2023/10/28 04:37:11;;;;;;;5.32;2.92;;;;;;;14.12;71.06;93907.94;5066811;28;20477;-71
2023/10/28 04:39:38;;;;;;;4.78;2.70;;;;;;;14.01;71.17;93927.41;5047495;28;20063;-71
2023/10/28 04:42:05;;;;;;;7.05;2.60;;;;;;;14.05;69.71;93886.94;5067028;28;20043;-71
2023/10/28 04:44:30;;;;;;;8.65;2.70;;;;;;;14.16;71.60;93917.91;5065057;28;20021;-71
2023/10/28 04:46:56;;;;;;;6.65;2.28;;;;;;;14.04;71.19;93927.06;5032836;28;20051;-71
2023/10/28 04:49:21;;;;;;;6.03;2.42;;;;;;;13.96;70.81;93906.25;5066915;28;20028;-71
2023/10/28 04:51:47;;;;;;;3.00;2.15;;;;;;;14.16;69.74;93924.91;5033439;28;20035;-71
2023/10/28 04:54:12;;;;;;;7.22;2.42;;;;;;;14.21;69.58;93944.31;5066694;28;20490;-71
2023/10/28 04:56:37;;;;;;;5.13;1.92;;;;;;;14.25;69.42;93940.38;5048959;28;20503;-71
2023/10/28 04:59:03;;;;;;;5.78;2.38;;;;;;;14.12;70.05;93952.34;5049827;28;20029;-71
2023/10/28 05:01:29;;;;;;;3.50;1.92;;;;;;;13.85;72.19;93939.56;5046292;28;20036;-71
2023/10/28 05:03:54;;;;;;;4.60;2.00;;;;;;;14.06;69.93;93927.72;5063159;28;20554;-71
2023/10/28 05:06:20;;;;;;;4.30;1.80;;;;;;;13.92;70.23;93941.47;5037210;28;20036;-71
2023/10/28 05:08:47;;;;;;;4.53;2.30;;;;;;;13.81;70.28;93953.09;5068761;28;20097;-71
2023/10/28 05:11:16;;;;;;;3.83;2.45;;;;;;;13.85;70.90;93946.56;5067148;28;20470;-71
2023/10/28 05:13:42;;;;;;;4.68;2.30;;;;;;;13.95;70.77;93952.41;5045844;28;20040;-71
2023/10/28 05:16:09;;;;;;;4.38;2.50;;;;;;;13.66;73.38;93945.16;5068463;28;20037;-72
2023/10/28 05:18:35;;;;;;;5.57;2.38;;;;;;;13.34;75.53;93922.53;5049728;28;20090;-71
2023/10/28 05:21:01;;;;;;;5.32;2.33;;;;;;;13.59;74.03;93952.00;5067533;28;20025;-72
2023/10/28 05:23:26;;;;;;;4.63;2.00;;;;;;;13.60;73.99;93951.03;5063517;28;20394;-71
2023/10/28 05:25:53;;;;;;;5.82;2.63;;;;;;;13.77;73.50;93970.91;5066408;28;20090;-71
2023/10/28 05:28:19;;;;;;;5.30;2.60;;;;;;;13.92;73.17;93983.25;5067301;28;20024;-71
2023/10/28 05:30:45;;;;;;;4.05;2.35;;;;;;;13.85;73.33;93978.72;5065109;28;20028;-71
2023/10/28 05:33:11;;;;;;;7.57;2.55;;;;;;;13.83;73.13;93980.66;5041922;28;20063;-71
2023/10/28 05:35:36;;;;;;;3.60;2.53;;;;;;;13.97;72.95;93988.78;5032116;28;20036;-72
2023/10/28 05:38:02;;;;;;;5.65;2.17;;;;;;;14.04;72.22;93990.56;5065855;28;20020;-73
2023/10/28 05:40:27;;;;;;;6.55;2.47;;;;;;;13.90;73.35;93988.66;5032958;28;20029;-71
2023/10/28 05:42:54;;;;;;;3.78;2.00;;;;;;;13.97;73.60;93978.34;5061779;28;20045;-71
2023/10/28 05:45:20;;;;;;;4.13;2.00;;;;;;;14.04;72.77;93968.84;5065304;28;20032;-72
2023/10/28 05:47:46;;;;;;;5.90;2.13;;;;;;;14.24;72.26;93995.41;5048512;28;20115;-72
2023/10/28 05:50:12;;;;;;;4.97;2.30;;;;;;;14.13;72.54;93987.94;5067091;28;20033;-71
2023/10/28 05:52:40;;;;;;;5.65;2.58;;;;;;;14.01;72.93;94017.03;5032138;28;20494;-71
2023/10/28 05:55:07;;;;;;;4.72;2.58;;;;;;;14.04;72.94;94013.25;5029919;28;20044;-71
2023/10/28 05:57:32;;;;;;;8.30;3.28;;;;;;;14.22;72.38;94011.25;5050201;28;20481;-71
2023/10/28 05:59:58;;;;;;;4.38;2.50;;;;;;;14.19;72.49;94023.81;5065592;28;20043;-71
2023/10/28 06:02:26;;;;;;;4.25;2.70;;;;;;;14.16;72.60;94024.16;5029563;28;20044;-71
2023/10/28 06:04:52;;;;;;;4.63;2.22;;;;;;;14.14;72.37;94005.22;5061545;28;20429;-71
2023/10/28 06:07:17;;;;;;;6.45;2.75;;;;;;;14.39;71.75;94024.25;5065112;28;20020;-71
2023/10/28 06:09:43;;;;;;;8.15;2.60;;;;;;;14.43;71.58;94033.34;5048989;28;20032;-71
2023/10/28 06:12:08;;;;;;;4.20;2.22;;;;;;;14.69;70.94;94033.94;5049018;28;20044;-72
2023/10/28 06:14:33;;;;;;;5.22;2.45;;;;;;;14.85;70.87;94032.22;5062030;28;20027;-71
2023/10/28 06:16:59;;;;;;;4.90;2.90;;;;;;;15.07;70.11;94036.69;5066792;28;20055;-71
2023/10/28 06:19:24;;;;;;;7.22;3.40;;;;;;;15.12;69.87;94033.53;5065621;28;20036;-71
2023/10/28 06:21:51;;;;;;;6.18;2.95;;;;;;;15.17;69.77;94029.41;5066259;28;20037;-72
2023/10/28 06:24:18;;;;;;;5.82;2.72;;;;;;;15.08;69.67;94027.84;5045817;28;20398;-71
2023/10/28 06:26:45;;;;;;;6.75;3.10;;;;;;;15.32;69.48;94026.03;5048795;28;20043;-71
2023/10/28 06:29:11;;;;;;;7.53;3.10;;;;;;;15.38;68.52;94012.28;5036679;28;20123;-71
2023/10/28 06:31:38;;;;;;;5.97;2.83;;;;;;;15.59;68.61;94045.63;5033225;28;20040;-71
2023/10/28 06:34:05;;;;;;;5.53;3.00;;;;;;;15.84;67.90;94048.88;5049111;28;20662;-72
2023/10/28 06:36:32;;;;;;;8.13;3.20;;;;;;;15.81;67.66;94057.09;5070550;28;20032;-71
2023/10/28 06:38:58;;;;;;;5.25;2.72;;;;;;;15.96;67.14;94068.41;5070767;28;20107;-71
2023/10/28 06:41:24;;;;;;;10.60;2.83;;;;;;;16.15;66.44;94074.13;5068963;28;20063;-71
2023/10/28 06:43:50;;;;;;;4.65;2.90;;;;;;;16.41;65.57;94071.91;5065625;28;20116;-72
2023/10/28 06:46:16;;;;;;;5.95;2.85;;;;;;;16.44;65.72;94076.78;5069455;28;20085;-71
2023/10/28 06:48:41;;;;;;;6.63;2.90;;;;;;;16.43;65.76;94074.31;5069281;28;20094;-71
2023/10/28 06:51:07;;;;;;;5.28;3.08;;;;;;;16.48;65.30;94083.28;5034245;28;20477;-71
2023/10/28 06:53:32;;;;;;;7.07;2.88;;;;;;;16.66;64.91;94082.09;5033005;28;20089;-71
2023/10/28 06:56:02;;;;;;;6.38;2.90;;;;;;;16.70;65.06;94101.72;5070514;28;20036;-72
2023/10/28 06:58:28;;;;;;;6.65;3.83;;;;;;;16.89;63.92;94097.78;5052399;28;20089;-71
2023/10/28 07:00:54;;;;;;;7.30;2.60;;;;;;;17.29;62.09;94109.53;5051823;28;20521;-72
2023/10/28 07:03:19;;;;;;;5.25;2.83;;;;;;;17.57;61.73;94109.63;5065433;28;20054;-72
2023/10/28 07:05:45;;;;;;;7.43;2.55;;;;;;;17.73;61.18;94102.50;5051416;28;20442;-72
2023/10/28 07:08:11;;;;;;;7.68;2.40;;;;;;;17.88;60.81;94105.09;5050759;28;20120;-72
2023/10/28 07:10:37;;;;;;;7.53;3.33;;;;;;;18.40;58.98;94106.50;5051088;28;20059;-74
2023/10/28 07:13:02;;;;;;;7.32;2.30;;;;;;;18.85;57.14;94094.66;5065423;28;20027;-72
2023/10/28 07:15:28;;;;;;;6.95;2.20;;;;;;;19.60;55.05;94116.59;5063271;28;20166;-72
2023/10/28 07:17:54;;;;;;;6.97;2.00;;;;;;;19.63;54.36;94116.19;5028967;28;20044;-72
2023/10/28 07:20:20;;;;;;;4.80;2.10;;;;;;;20.13;53.35;94115.09;5034828;28;20048;-71
2023/10/28 07:22:46;;;;;;;4.28;2.00;;;;;;;20.45;51.98;94124.81;5061682;28;20040;-72
2023/10/28 07:25:11;;;;;;;6.32;1.83;;;;;;;20.89;50.46;94118.06;5066212;28;20055;-73
2023/10/28 07:27:37;;;;;;;4.43;1.92;;;;;;;21.72;48.48;94135.84;5068591;28;20456;-72
2023/10/28 07:30:03;;;;;;;6.00;1.80;;;;;;;22.36;46.75;94131.38;5047365;28;20529;-73
2023/10/28 07:32:30;;;;;;;4.82;2.10;;;;;;;22.66;45.98;94125.44;5065208;28;20517;-72
2023/10/28 07:34:55;;;;;;;6.65;1.60;;;;;;;22.87;45.26;94119.72;5062660;28;20418;-72
2023/10/28 07:37:21;;;;;;;3.60;1.65;;;;;;;23.24;44.24;94126.91;5047929;28;20029;-72
2023/10/28 07:39:46;;;;;;;5.00;1.70;;;;;;;24.01;42.51;94114.66;5070458;28;20043;-71
2023/10/28 07:42:13;;;;;;;5.53;1.95;;;;;;;23.94;42.60;94132.53;5071299;28;20028;-71
2023/10/28 07:44:39;;;;;;;3.72;1.40;;;;;;;23.85;41.91;94116.13;5050958;28;20044;-72
2023/10/28 07:47:05;;;;;;;4.55;1.30;;;;;;;23.99;42.06;94118.59;5068528;28;20044;-72
2023/10/28 07:49:30;;;;;;;6.18;2.00;;;;;;;23.32;43.58;94127.41;5072511;28;20460;-72
2023/10/28 07:51:56;;;;;;;8.20;2.53;;;;;;;23.05;44.54;94128.72;5068850;28;20555;-69
2023/10/28 07:54:21;;;;;;;4.35;2.00;;;;;;;21.95;45.89;94108.03;5050178;28;20052;-71
2023/10/28 07:56:47;;;;;;;4.68;1.90;;;;;;;21.31;47.75;94123.84;5065577;28;20041;-71
2023/10/28 07:59:12;;;;;;;5.18;1.73;;;;;;;21.58;47.53;94136.94;5050504;28;20406;-71
2023/10/28 08:01:41;;;;;;;7.07;2.40;;;;;;;21.30;48.16;94134.59;5070374;28;20309;-72
2023/10/28 08:04:06;;;;;;;4.85;1.85;;;;;;;21.09;49.28;94147.06;5062499;28;20028;-72
2023/10/28 08:06:32;;;;;;;8.70;2.38;;;;;;;20.83;49.62;94153.19;5051815;28;20040;-71
2023/10/28 08:08:58;;;;;;;4.35;1.80;;;;;;;20.68;50.16;94152.63;5068590;28;20515;-72
2023/10/28 08:11:28;;;;;;;5.80;2.10;;;;;;;20.64;50.05;94149.56;5034911;28;20494;-71
2023/10/28 08:13:53;;;;;;;8.00;2.07;;;;;;;20.87;49.43;94145.72;5065611;28;20078;-70
2023/10/28 08:16:20;;;;;;;2.55;1.48;;;;;;;20.43;50.28;94140.03;5068228;28;20029;-70
2023/10/28 08:18:46;;;;;;;6.55;2.67;;;;;;;20.48;50.57;94144.72;5065666;28;20039;-72
2023/10/28 08:21:14;;;;;;;7.20;2.33;;;;;;;20.23;50.49;94104.97;5067388;28;20040;-71
2023/10/28 08:23:39;;;;;;;2.75;1.60;;;;;;;20.46;50.18;94138.81;5032243;28;20020;-71
2023/10/28 08:26:08;;;;;;;4.80;2.28;;;;;;;20.87;49.33;94140.44;5067924;28;20116;-71
2023/10/28 08:28:33;;;;;;;7.82;2.00;;;;;;;20.77;50.04;94142.66;5068253;28;20041;-71
2023/10/28 08:30:58;;;;;;;5.70;1.90;;;;;;;20.89;50.25;94147.09;5067738;28;20094;-72
2023/10/28 08:33:24;;;;;;;7.28;1.95;;;;;;;20.78;49.79;94134.53;5047570;28;20020;-71
2023/10/28 08:35:50;;;;;;;8.23;2.28;;;;;;;21.23;49.27;94149.66;5047043;28;20032;-71
2023/10/28 08:38:18;;;;;;;4.95;2.15;;;;;;;20.88;49.12;94134.13;5066714;28;20025;-72
2023/10/28 08:40:45;;;;;;;5.13;2.15;;;;;;;20.91;49.16;94150.34;5064596;28;20492;-72
2023/10/28 08:43:10;;;;;;;3.80;1.73;;;;;;;21.06;48.65;94146.66;5046654;28;20040;-71
2023/10/28 08:45:36;;;;;;;4.70;2.00;;;;;;;20.79;48.97;94141.44;5050668;28;20414;-71
2023/10/28 08:48:01;;;;;;;4.40;2.00;;;;;;;20.91;48.87;94160.91;5046888;28;20025;-71
2023/10/28 08:50:27;;;;;;;4.03;1.63;;;;;;;20.65;49.24;94156.50;5063237;28;20032;-71
2023/10/28 08:52:57;;;;;;;5.43;2.00;;;;;;;20.80;49.32;94158.91;5064011;28;20465;-72
2023/10/28 08:55:25;;;;;;;4.82;1.80;;;;;;;20.68;49.63;94155.28;5035471;28;20029;-72
2023/10/28 08:57:52;;;;;;;5.75;2.00;;;;;;;20.68;49.49;94161.34;5064988;28;20374;-72
2023/10/28 09:00:19;;;;;;;4.60;1.85;;;;;;;20.89;48.88;94167.41;5066746;28;20493;-72
2023/10/28 09:02:46;;;;;;;6.15;2.00;;;;;;;20.53;49.60;94153.66;5045256;28;20040;-72
2023/10/28 09:05:12;;;;;;;3.40;1.40;;;;;;;20.64;49.07;94148.75;5045991;28;20631;-72
2023/10/28 09:07:37;;;;;;;4.47;1.60;;;;;;;20.91;48.41;94154.81;5066626;28;20174;-72
2023/10/28 09:10:04;;;;;;;6.53;1.98;;;;;;;20.90;48.52;94164.56;5066397;28;20028;-72
2023/10/28 09:12:32;;;;;;;9.27;1.80;;;;;;;20.84;49.00;94164.56;5066063;28;20600;-72
2023/10/28 09:14:57;;;;;;;6.03;2.20;;;;;;;20.96;48.70;94155.03;5062826;28;20116;-72
2023/10/28 09:17:23;;;;;;;6.70;1.92;;;;;;;21.14;47.72;94149.88;5068047;28;20502;-72
2023/10/28 09:19:51;;;;;;;6.10;2.03;;;;;;;21.23;47.82;94162.84;5065201;28;20330;-72
2023/10/28 09:22:16;;;;;;;5.22;2.00;;;;;;;21.12;48.04;94157.22;5048898;28;20442;-72
2023/10/28 09:24:46;;;;;;;10.35;2.92;;;;;;;21.20;48.02;94164.91;5043339;28;20032;-72
2023/10/28 09:27:11;;;;;;;6.90;2.40;;;;;;;21.29;48.11;94154.91;5067079;28;20032;-72
2023/10/28 09:29:37;;;;;;;5.50;2.25;;;;;;;21.31;47.60;94154.69;5066798;28;20475;-72
2023/10/28 09:32:06;;;;;;;7.13;2.60;;;;;;;21.65;46.63;94156.22;5067486;28;20040;-72
2023/10/28 09:34:35;;;;;;;4.15;2.10;;;;;;;21.72;46.31;94151.69;5065590;28;20032;-73
2023/10/28 09:37:01;;;;;;;8.40;2.40;;;;;;;21.67;46.12;94143.59;5065822;28;20478;-72
2023/10/28 09:39:26;;;;;;;5.78;2.00;;;;;;;21.62;47.04;94151.38;5049175;28;20025;-71
2023/10/28 09:41:52;;;;;;;6.95;2.05;;;;;;;21.48;46.58;94150.63;5061016;28;20036;-73
2023/10/28 09:44:18;;;;;;;5.88;2.00;;;;;;;21.45;46.68;94147.56;5062189;28;20128;-75
2023/10/28 09:46:43;;;;;;;7.50;2.28;;;;;;;21.53;46.57;94156.06;5064908;28;20032;-73
2023/10/28 09:49:09;;;;;;;6.93;2.20;;;;;;;21.77;46.02;94151.06;5049367;28;20028;-73
2023/10/28 09:51:35;;;;;;;9.70;2.42;;;;;;;21.70;46.05;94139.72;5027442;28;20029;-74
2023/10/28 09:54:05;;;;;;;6.43;2.22;;;;;;;21.66;45.74;94135.88;5043222;28;20024;-73
2023/10/28 09:56:34;;;;;;;5.45;2.28;;;;;;;21.83;45.43;94151.03;5063222;28;20089;-72
2023/10/28 09:59:18;;;;;;;4.40;1.95;;;;;;;21.86;45.16;94137.38;5032640;28;20028;-73
2023/10/28 10:02:11;;;;;;;6.75;1.90;;;;;;;22.05;45.20;94140.13;5048524;28;20446;-73
2023/10/28 10:05:10;;;;;;;5.70;2.08;;;;;;;21.99;45.16;94143.63;5062785;28;20035;-72
2023/10/28 10:07:36;;;;;;;5.00;1.90;;;;;;;22.24;44.99;94141.84;5061557;28;20497;-73
2023/10/28 10:10:13;;;;;;;6.13;2.05;;;;;;;22.33;43.27;94142.38;5047859;28;20036;-73
2023/10/28 10:12:39;;;;;;;3.72;1.42;;;;;;;22.36;38.91;94122.63;5063765;28;20120;-73
2023/10/28 10:15:06;;;;;;;3.38;1.05;;;;;;;22.38;37.09;94113.44;5063355;28;20040;-73
2023/10/28 10:17:52;;;;;;;3.30;0.90;;;;;;;22.28;37.44;94119.22;5049478;28;20092;-73
2023/10/28 10:20:25;;;;;;;3.67;1.08;;;;;;;22.34;36.84;94122.03;5060904;28;20211;-72
2023/10/28 10:23:00;;;;;;;2.83;1.25;;;;;;;22.24;37.33;94120.69;5063654;28;20534;-73
2023/10/28 10:25:36;;;;;;;3.03;0.90;;;;;;;22.19;37.46;94120.53;5050653;28;20560;-73
2023/10/28 10:28:23;;;;;;;4.68;1.15;;;;;;;22.36;36.71;94114.69;5032477;28;20078;-72
2023/10/28 10:30:48;;;;;;;4.95;1.50;;;;;;;22.22;37.58;94111.34;5049562;28;20036;-72
2023/10/28 10:33:23;;;;;;;2.58;1.05;;;;;;;22.17;38.26;94096.06;5064318;28;20040;-72
2023/10/28 10:35:49;;;;;;;3.20;1.10;;;;;;;22.23;37.76;94108.50;5066289;28;20028;-72
2023/10/28 10:38:15;;;;;;;3.95;1.25;;;;;;;22.21;38.03;94107.91;5066588;28;20298;-72
2023/10/28 10:40:48;;;;;;;5.13;1.25;;;;;;;22.28;37.77;94111.28;5046544;28;20055;-72
2023/10/28 10:43:20;;;;;;;3.70;1.02;;;;;;;22.63;37.41;94113.44;5045199;28;20037;-72
2023/10/28 10:45:47;;;;;;;2.42;0.88;;;;;;;22.55;36.30;94113.72;5065279;28;20025;-72
2023/10/28 10:48:12;;;;;;;5.60;1.25;;;;;;;22.55;36.94;94097.84;5065282;28;20021;-72
2023/10/28 10:50:38;;;;;;;3.75;1.00;;;;;;;22.43;35.53;94079.22;5047193;28;20036;-72
2023/10/28 10:53:04;;;;;;;3.45;0.80;;;;;;;22.72;34.38;94112.13;5061625;28;20070;-72
2023/10/28 10:55:30;;;;;;;4.25;1.30;;;;;;;22.71;35.66;94107.84;5065517;28;20064;-72
2023/10/28 10:57:56;;;;;;;4.70;1.00;;;;;;;22.84;35.15;94104.25;5047053;28;20495;-72
2023/10/28 11:00:22;;;;;;;7.18;0.80;;;;;;;22.59;35.06;94090.25;5048564;28;20032;-72
2023/10/28 11:02:50;;;;;;;5.85;1.10;;;;;;;22.70;35.47;94116.00;5063056;28;20089;-72
2023/10/28 11:05:17;;;;;;;2.10;0.75;;;;;;;22.52;35.99;94103.56;5064071;28;20040;-71
2023/10/28 11:07:43;;;;;;;4.18;1.10;;;;;;;22.56;36.16;94114.50;5047795;28;20029;-72
2023/10/28 11:10:09;;;;;;;4.18;1.05;;;;;;;22.50;35.87;94101.13;5065484;28;20078;-72
2023/10/28 11:12:35;;;;;;;3.35;0.80;;;;;;;22.52;35.00;94108.84;5047058;28;20028;-72
2023/10/28 11:15:00;;;;;;;2.92;0.80;;;;;;;22.66;34.33;94089.16;5053949;28;20029;-72
2023/10/28 11:17:26;;;;;;;4.40;1.00;;;;;;;22.74;35.49;94114.56;5055875;28;20039;-71
2023/10/28 11:19:51;;;;;;;3.90;0.98;;;;;;;22.42;35.64;94117.28;5055993;28;20110;-72
2023/10/28 11:22:17;;;;;;;4.32;0.90;;;;;;;22.37;35.40;94116.31;5064842;28;20499;-72
2023/10/28 11:24:42;;;;;;;3.80;0.93;;;;;;;22.21;36.27;94113.19;5069459;28;20058;-72
2023/10/28 11:27:08;;;;;;;3.78;0.93;;;;;;;;;;5055421;28;20040;-72
2023/10/28 11:29:37;;;;;;;3.15;0.90;;;;;;;22.37;35.10;94122.44;5071516;28;20028;-73
2023/10/28 11:32:09;;;;;;;2.55;0.90;;;;;;;22.30;35.25;94114.53;5073163;28;20029;-73